sensor_id;sensor_type;location;lat;lon;timestamp;temperature;humidity
7970;DHT22;4030;52.362;9.206;2023-01-26T00:08:52;2.80;87.20
7970;DHT22;4030;52.362;9.206;2023-01-26T00:11:21;2.70;90.90
7970;DHT22;4030;52.362;9.206;2023-01-26T00:13:49;3.00;87.80
7970;DHT22;4030;52.362;9.206;2023-01-26T00:16:15;2.90;90.80
7970;DHT22;4030;52.362;9.206;2023-01-26T00:21:11;2.80;90.90
7970;DHT22;4030;52.362;9.206;2023-01-26T00:26:06;2.80;87.30
7970;DHT22;4030;52.362;9.206;2023-01-26T00:28:32;2.40;89.30
7970;DHT22;4030;52.362;9.206;2023-01-26T00:31:05;3.00;91.10
7970;DHT22;4030;52.362;9.206;2023-01-26T00:33:32;3.00;91.00
7970;DHT22;4030;52.362;9.206;2023-01-26T00:38:24;2.70;91.00
7970;DHT22;4030;52.362;9.206;2023-01-26T00:40:50;2.80;91.00
7970;DHT22;4030;52.362;9.206;2023-01-26T00:43:15;3.00;90.60
7970;DHT22;4030;52.362;9.206;2023-01-26T00:48:07;2.60;90.20
7970;DHT22;4030;52.362;9.206;2023-01-26T00:57:58;2.80;87.60
7970;DHT22;4030;52.362;9.206;2023-01-26T01:00:25;2.80;91.00
7970;DHT22;4030;52.362;9.206;2023-01-26T01:02:51;3.00;91.10
7970;DHT22;4030;52.362;9.206;2023-01-26T01:05:16;2.70;90.90
7970;DHT22;4030;52.362;9.206;2023-01-26T01:07:42;2.50;91.00
7970;DHT22;4030;52.362;9.206;2023-01-26T01:10:08;3.00;87.70
7970;DHT22;4030;52.362;9.206;2023-01-26T01:15:01;3.10;91.10
7970;DHT22;4030;52.362;9.206;2023-01-26T01:17:26;3.00;90.10
7970;DHT22;4030;52.362;9.206;2023-01-26T01:34:29;2.50;88.70
7970;DHT22;4030;52.362;9.206;2023-01-26T01:41:46;2.90;91.20
7970;DHT22;4030;52.362;9.206;2023-01-26T01:44:17;3.10;91.30
7970;DHT22;4030;52.362;9.206;2023-01-26T01:47:10;2.80;88.00
7970;DHT22;4030;52.362;9.206;2023-01-26T01:49:48;2.40;91.00
7970;DHT22;4030;52.362;9.206;2023-01-26T01:52:25;2.50;90.00
7970;DHT22;4030;52.362;9.206;2023-01-26T01:54:58;2.70;91.20
7970;DHT22;4030;52.362;9.206;2023-01-26T01:57:35;2.70;87.90
7970;DHT22;4030;52.362;9.206;2023-01-26T02:00:12;3.00;88.30
7970;DHT22;4030;52.362;9.206;2023-01-26T02:02:41;2.60;88.30
7970;DHT22;4030;52.362;9.206;2023-01-26T02:05:25;2.90;91.40
7970;DHT22;4030;52.362;9.206;2023-01-26T02:10:18;2.80;88.30
7970;DHT22;4030;52.362;9.206;2023-01-26T02:12:50;3.10;91.50
7970;DHT22;4030;52.362;9.206;2023-01-26T02:20:21;2.60;88.90
7970;DHT22;4030;52.362;9.206;2023-01-26T02:23:19;2.90;91.50
7970;DHT22;4030;52.362;9.206;2023-01-26T02:28:21;3.00;91.50
7970;DHT22;4030;52.362;9.206;2023-01-26T02:33:24;2.60;91.40
7970;DHT22;4030;52.362;9.206;2023-01-26T02:38:19;3.00;91.60
7970;DHT22;4030;52.362;9.206;2023-01-26T02:41:05;2.50;91.40
7970;DHT22;4030;52.362;9.206;2023-01-26T02:51:09;2.80;90.30
7970;DHT22;4030;52.362;9.206;2023-01-26T02:56:01;2.90;90.00
7970;DHT22;4030;52.362;9.206;2023-01-26T03:03:22;2.70;89.00
7970;DHT22;4030;52.362;9.206;2023-01-26T03:05:50;2.60;91.60
7970;DHT22;4030;52.362;9.206;2023-01-26T03:08:16;2.70;91.70
7970;DHT22;4030;52.362;9.206;2023-01-26T03:10:42;2.90;91.90
7970;DHT22;4030;52.362;9.206;2023-01-26T03:13:08;2.70;91.70
7970;DHT22;4030;52.362;9.206;2023-01-26T03:15:34;2.60;91.70
7970;DHT22;4030;52.362;9.206;2023-01-26T03:18:10;2.80;89.30
7970;DHT22;4030;52.362;9.206;2023-01-26T03:20:58;2.80;89.30
7970;DHT22;4030;52.362;9.206;2023-01-26T03:29:12;2.90;91.90
7970;DHT22;4030;52.362;9.206;2023-01-26T03:31:38;3.30;92.00
7970;DHT22;4030;52.362;9.206;2023-01-26T03:44:06;2.50;91.70
7970;DHT22;4030;52.362;9.206;2023-01-26T03:46:50;3.00;91.90
7970;DHT22;4030;52.362;9.206;2023-01-26T03:49:34;2.90;91.00
7970;DHT22;4030;52.362;9.206;2023-01-26T03:55:03;3.00;92.00
7970;DHT22;4030;52.362;9.206;2023-01-26T03:57:47;2.90;91.20
7970;DHT22;4030;52.362;9.206;2023-01-26T04:00:13;2.70;91.90
7970;DHT22;4030;52.362;9.206;2023-01-26T04:02:40;3.00;92.00
7970;DHT22;4030;52.362;9.206;2023-01-26T04:08:09;2.70;91.80
7970;DHT22;4030;52.362;9.206;2023-01-26T04:10:54;2.60;90.00
7970;DHT22;4030;52.362;9.206;2023-01-26T04:13:21;3.10;92.10
7970;DHT22;4030;52.362;9.206;2023-01-26T04:16:07;2.80;89.90
7970;DHT22;4030;52.362;9.206;2023-01-26T04:18:53;3.00;92.10
7970;DHT22;4030;52.362;9.206;2023-01-26T04:21:37;3.10;91.00
7970;DHT22;4030;52.362;9.206;2023-01-26T04:24:04;2.80;89.90
7970;DHT22;4030;52.362;9.206;2023-01-26T04:26:38;2.60;92.00
7970;DHT22;4030;52.362;9.206;2023-01-26T04:29:11;2.80;90.00
7970;DHT22;4030;52.362;9.206;2023-01-26T04:31:39;3.00;92.20
7970;DHT22;4030;52.362;9.206;2023-01-26T04:34:06;2.80;92.10
7970;DHT22;4030;52.362;9.206;2023-01-26T04:36:35;3.10;91.00
7970;DHT22;4030;52.362;9.206;2023-01-26T04:41:28;2.80;90.70
7970;DHT22;4030;52.362;9.206;2023-01-26T04:43:54;2.80;92.10
7970;DHT22;4030;52.362;9.206;2023-01-26T04:48:46;3.00;92.20
7970;DHT22;4030;52.362;9.206;2023-01-26T04:51:14;2.60;91.30
7970;DHT22;4030;52.362;9.206;2023-01-26T04:56:17;2.80;90.10
7970;DHT22;4030;52.362;9.206;2023-01-26T04:58:43;2.80;92.10
7970;DHT22;4030;52.362;9.206;2023-01-26T05:01:09;2.90;92.20
7970;DHT22;4030;52.362;9.206;2023-01-26T05:03:34;2.60;92.00
7970;DHT22;4030;52.362;9.206;2023-01-26T05:06:00;2.60;91.30
7970;DHT22;4030;52.362;9.206;2023-01-26T05:15:45;2.80;90.10
7970;DHT22;4030;52.362;9.206;2023-01-26T05:18:11;2.50;92.00
7970;DHT22;4030;52.362;9.206;2023-01-26T05:20:37;3.00;92.00
7970;DHT22;4030;52.362;9.206;2023-01-26T05:25:29;3.10;92.10
7970;DHT22;4030;52.362;9.206;2023-01-26T05:30:21;2.90;90.80
7970;DHT22;4030;52.362;9.206;2023-01-26T05:37:39;3.10;91.10
7970;DHT22;4030;52.362;9.206;2023-01-26T05:40:08;2.90;92.40
7970;DHT22;4030;52.362;9.206;2023-01-26T05:42:34;2.70;92.30
7970;DHT22;4030;52.362;9.206;2023-01-26T05:45:00;2.80;92.40
7970;DHT22;4030;52.362;9.206;2023-01-26T05:47:25;2.80;92.10
7970;DHT22;4030;52.362;9.206;2023-01-26T05:52:19;3.10;90.90
7970;DHT22;4030;52.362;9.206;2023-01-26T05:57:12;3.10;90.60
7970;DHT22;4030;52.362;9.206;2023-01-26T05:59:38;2.90;92.40
7970;DHT22;4030;52.362;9.206;2023-01-26T06:02:04;3.00;92.20
7970;DHT22;4030;52.362;9.206;2023-01-26T06:04:30;2.50;91.10
7970;DHT22;4030;52.362;9.206;2023-01-26T06:06:57;2.80;91.20
7970;DHT22;4030;52.362;9.206;2023-01-26T06:09:23;2.70;92.40
7970;DHT22;4030;52.362;9.206;2023-01-26T06:11:49;2.60;92.30
7970;DHT22;4030;52.362;9.206;2023-01-26T06:14:15;3.00;92.50
7970;DHT22;4030;52.362;9.206;2023-01-26T06:16:41;2.80;92.40
7970;DHT22;4030;52.362;9.206;2023-01-26T06:19:09;2.80;92.40
7970;DHT22;4030;52.362;9.206;2023-01-26T06:21:35;2.60;92.40
7970;DHT22;4030;52.362;9.206;2023-01-26T06:24:02;2.70;92.40
7970;DHT22;4030;52.362;9.206;2023-01-26T06:26:27;3.10;92.60
7970;DHT22;4030;52.362;9.206;2023-01-26T06:28:53;2.80;92.50
7970;DHT22;4030;52.362;9.206;2023-01-26T06:31:19;2.60;92.40
7970;DHT22;4030;52.362;9.206;2023-01-26T06:33:46;3.10;92.30
7970;DHT22;4030;52.362;9.206;2023-01-26T06:36:13;3.10;92.70
7970;DHT22;4030;52.362;9.206;2023-01-26T06:38:45;2.70;92.40
7970;DHT22;4030;52.362;9.206;2023-01-26T06:43:39;3.10;91.40
7970;DHT22;4030;52.362;9.206;2023-01-26T06:46:05;2.90;90.50
7970;DHT22;4030;52.362;9.206;2023-01-26T06:48:33;2.90;92.10
7970;DHT22;4030;52.362;9.206;2023-01-26T06:53:54;2.80;92.50
7970;DHT22;4030;52.362;9.206;2023-01-26T06:56:22;2.80;90.50
7970;DHT22;4030;52.362;9.206;2023-01-26T06:58:48;3.10;91.60
7970;DHT22;4030;52.362;9.206;2023-01-26T07:01:17;2.70;92.50
7970;DHT22;4030;52.362;9.206;2023-01-26T07:03:44;3.10;92.60
7970;DHT22;4030;52.362;9.206;2023-01-26T07:06:11;2.90;92.50
7970;DHT22;4030;52.362;9.206;2023-01-26T07:08:38;2.90;90.50
7970;DHT22;4030;52.362;9.206;2023-01-26T07:11:05;3.10;92.70
7970;DHT22;4030;52.362;9.206;2023-01-26T07:13:30;2.70;92.60
7970;DHT22;4030;52.362;9.206;2023-01-26T07:16:00;2.90;92.60
7970;DHT22;4030;52.362;9.206;2023-01-26T07:20:52;2.90;92.60
7970;DHT22;4030;52.362;9.206;2023-01-26T07:40:22;2.70;91.90
7970;DHT22;4030;52.362;9.206;2023-01-26T07:50:09;2.90;90.60
7970;DHT22;4030;52.362;9.206;2023-01-26T07:52:36;2.90;92.70
7970;DHT22;4030;52.362;9.206;2023-01-26T07:57:29;2.80;91.30
7970;DHT22;4030;52.362;9.206;2023-01-26T08:07:13;3.10;92.40
7970;DHT22;4030;52.362;9.206;2023-01-26T08:09:39;3.00;91.70
7970;DHT22;4030;52.362;9.206;2023-01-26T08:14:31;2.70;92.50
7970;DHT22;4030;52.362;9.206;2023-01-26T08:16:57;3.00;92.10
7970;DHT22;4030;52.362;9.206;2023-01-26T08:36:28;2.70;92.50
7970;DHT22;4030;52.362;9.206;2023-01-26T08:41:20;3.10;92.70
7970;DHT22;4030;52.362;9.206;2023-01-26T08:43:46;3.30;91.60
7970;DHT22;4030;52.362;9.206;2023-01-26T08:46:12;3.10;92.40
7970;DHT22;4030;52.362;9.206;2023-01-26T08:51:05;3.00;90.70
7970;DHT22;4030;52.362;9.206;2023-01-26T08:53:32;3.00;92.80
7970;DHT22;4030;52.362;9.206;2023-01-26T08:56:07;3.10;90.80
7970;DHT22;4030;52.362;9.206;2023-01-26T08:58:34;3.10;90.80
7970;DHT22;4030;52.362;9.206;2023-01-26T09:01:09;3.10;90.80
7970;DHT22;4030;52.362;9.206;2023-01-26T09:03:36;3.20;92.90
7970;DHT22;4030;52.362;9.206;2023-01-26T09:06:05;3.00;92.80
7970;DHT22;4030;52.362;9.206;2023-01-26T09:08:32;3.00;92.70
7970;DHT22;4030;52.362;9.206;2023-01-26T09:13:24;3.10;92.80
7970;DHT22;4030;52.362;9.206;2023-01-26T09:15:50;2.90;92.60
7970;DHT22;4030;52.362;9.206;2023-01-26T09:18:15;3.10;92.70
7970;DHT22;4030;52.362;9.206;2023-01-26T09:20:42;3.10;92.70
7970;DHT22;4030;52.362;9.206;2023-01-26T09:23:08;3.10;92.70
7970;DHT22;4030;52.362;9.206;2023-01-26T09:25:36;3.30;92.80
7970;DHT22;4030;52.362;9.206;2023-01-26T09:28:03;3.10;92.70
7970;DHT22;4030;52.362;9.206;2023-01-26T09:32:59;3.40;90.80
7970;DHT22;4030;52.362;9.206;2023-01-26T09:35:26;3.60;92.00
7970;DHT22;4030;52.362;9.206;2023-01-26T09:37:52;3.50;92.40
7970;DHT22;4030;52.362;9.206;2023-01-26T09:40:30;3.40;92.80
7970;DHT22;4030;52.362;9.206;2023-01-26T09:56:41;4.00;92.90
7970;DHT22;4030;52.362;9.206;2023-01-26T09:59:32;3.50;92.70
7970;DHT22;4030;52.362;9.206;2023-01-26T10:05:43;3.60;90.70
7970;DHT22;4030;52.362;9.206;2023-01-26T10:08:13;3.90;93.00
7970;DHT22;4030;52.362;9.206;2023-01-26T10:11:04;3.60;90.80
7970;DHT22;4030;52.362;9.206;2023-01-26T10:13:34;3.30;91.90
7970;DHT22;4030;52.362;9.206;2023-01-26T10:16:04;3.70;91.00
7970;DHT22;4030;52.362;9.206;2023-01-26T10:18:38;3.60;90.80
7970;DHT22;4030;52.362;9.206;2023-01-26T10:21:22;3.90;93.00
7970;DHT22;4030;52.362;9.206;2023-01-26T10:23:51;3.60;90.80
7970;DHT22;4030;52.362;9.206;2023-01-26T10:26:21;3.60;90.80
7970;DHT22;4030;52.362;9.206;2023-01-26T10:28:49;3.80;91.20
7970;DHT22;4030;52.362;9.206;2023-01-26T10:31:42;3.60;92.80
7970;DHT22;4030;52.362;9.206;2023-01-26T10:36:40;3.70;90.80
7970;DHT22;4030;52.362;9.206;2023-01-26T10:39:12;3.40;92.70
7970;DHT22;4030;52.362;9.206;2023-01-26T10:41:39;3.50;92.70
7970;DHT22;4030;52.362;9.206;2023-01-26T10:44:32;3.60;92.80
7970;DHT22;4030;52.362;9.206;2023-01-26T10:47:18;3.80;92.90
7970;DHT22;4030;52.362;9.206;2023-01-26T10:49:46;4.00;91.10
7970;DHT22;4030;52.362;9.206;2023-01-26T10:52:16;3.80;91.90
7970;DHT22;4030;52.362;9.206;2023-01-26T10:55:07;4.00;92.80
7970;DHT22;4030;52.362;9.206;2023-01-26T10:57:39;3.80;90.80
7970;DHT22;4030;52.362;9.206;2023-01-26T11:00:27;3.90;92.00
7970;DHT22;4030;52.362;9.206;2023-01-26T11:03:03;3.60;91.30
7970;DHT22;4030;52.362;9.206;2023-01-26T11:05:38;3.90;92.80
7970;DHT22;4030;52.362;9.206;2023-01-26T11:08:34;3.80;91.70
7970;DHT22;4030;52.362;9.206;2023-01-26T11:11:02;3.70;92.70
7970;DHT22;4030;52.362;9.206;2023-01-26T11:13:29;3.80;92.20
7970;DHT22;4030;52.362;9.206;2023-01-26T11:16:21;3.90;90.90
7970;DHT22;4030;52.362;9.206;2023-01-26T11:18:56;3.70;90.80
7970;DHT22;4030;52.362;9.206;2023-01-26T11:24:14;4.30;92.80
7970;DHT22;4030;52.362;9.206;2023-01-26T11:29:32;4.20;92.80
7970;DHT22;4030;52.362;9.206;2023-01-26T11:34:59;4.00;92.70
7970;DHT22;4030;52.362;9.206;2023-01-26T11:37:47;3.80;91.30
7970;DHT22;4030;52.362;9.206;2023-01-26T11:40:51;4.10;90.90
7970;DHT22;4030;52.362;9.206;2023-01-26T11:43:37;3.70;92.60
7970;DHT22;4030;52.362;9.206;2023-01-26T11:52:34;4.00;92.80
7970;DHT22;4030;52.362;9.206;2023-01-26T11:58:09;4.10;90.90
7970;DHT22;4030;52.362;9.206;2023-01-26T12:00:48;3.90;92.70
7970;DHT22;4030;52.362;9.206;2023-01-26T12:06:39;4.10;91.00
7970;DHT22;4030;52.362;9.206;2023-01-26T12:09:23;4.30;91.90
7970;DHT22;4030;52.362;9.206;2023-01-26T12:11:59;4.00;92.70
7970;DHT22;4030;52.362;9.206;2023-01-26T12:15:01;4.30;91.10
7970;DHT22;4030;52.362;9.206;2023-01-26T12:23:15;4.20;92.90
7970;DHT22;4030;52.362;9.206;2023-01-26T12:25:53;3.90;93.40
7970;DHT22;4030;52.362;9.206;2023-01-26T12:33:42;4.10;95.20
7970;DHT22;4030;52.362;9.206;2023-01-26T12:36:45;4.70;95.90
7970;DHT22;4030;52.362;9.206;2023-01-26T12:42:38;4.10;96.20
7970;DHT22;4030;52.362;9.206;2023-01-26T12:45:36;4.50;96.60
7970;DHT22;4030;52.362;9.206;2023-01-26T12:48:17;4.60;96.60
7970;DHT22;4030;52.362;9.206;2023-01-26T12:51:03;4.30;96.40
7970;DHT22;4030;52.362;9.206;2023-01-26T12:53:36;4.40;94.60
7970;DHT22;4030;52.362;9.206;2023-01-26T12:56:12;4.60;96.30
7970;DHT22;4030;52.362;9.206;2023-01-26T12:58:43;4.10;95.70
7970;DHT22;4030;52.362;9.206;2023-01-26T13:01:13;4.40;94.40
7970;DHT22;4030;52.362;9.206;2023-01-26T13:03:53;4.10;95.90
7970;DHT22;4030;52.362;9.206;2023-01-26T13:06:26;4.40;94.20
7970;DHT22;4030;52.362;9.206;2023-01-26T13:11:53;4.50;95.90
7970;DHT22;4030;52.362;9.206;2023-01-26T13:17:40;4.20;95.60
7970;DHT22;4030;52.362;9.206;2023-01-26T13:24:56;4.10;93.70
7970;DHT22;4030;52.362;9.206;2023-01-26T13:27:46;4.40;95.40
7970;DHT22;4030;52.362;9.206;2023-01-26T13:35:12;4.40;93.50
7970;DHT22;4030;52.362;9.206;2023-01-26T13:40:25;4.20;95.10
7970;DHT22;4030;52.362;9.206;2023-01-26T13:43:16;4.00;94.40
7970;DHT22;4030;52.362;9.206;2023-01-26T13:51:28;4.60;95.10
7970;DHT22;4030;52.362;9.206;2023-01-26T13:56:37;4.30;93.20
7970;DHT22;4030;52.362;9.206;2023-01-26T13:59:12;4.20;94.50
7970;DHT22;4030;52.362;9.206;2023-01-26T14:01:48;4.30;94.40
7970;DHT22;4030;52.362;9.206;2023-01-26T14:04:29;4.40;95.10
7970;DHT22;4030;52.362;9.206;2023-01-26T14:07:00;4.30;93.40
7970;DHT22;4030;52.362;9.206;2023-01-26T14:09:29;4.40;95.10
7970;DHT22;4030;52.362;9.206;2023-01-26T14:11:59;4.50;95.10
7970;DHT22;4030;52.362;9.206;2023-01-26T14:14:32;4.10;93.40
7970;DHT22;4030;52.362;9.206;2023-01-26T14:17:00;4.40;95.00
7970;DHT22;4030;52.362;9.206;2023-01-26T14:21:58;4.20;93.10
7970;DHT22;4030;52.362;9.206;2023-01-26T14:24:34;4.30;94.90
7970;DHT22;4030;52.362;9.206;2023-01-26T14:27:04;4.00;94.70
7970;DHT22;4030;52.362;9.206;2023-01-26T14:29:36;4.30;94.90
7970;DHT22;4030;52.362;9.206;2023-01-26T14:34:30;4.20;93.00
7970;DHT22;4030;52.362;9.206;2023-01-26T14:37:13;4.50;94.90
7970;DHT22;4030;52.362;9.206;2023-01-26T14:39:42;4.20;93.00
7970;DHT22;4030;52.362;9.206;2023-01-26T14:42:16;4.20;93.00
7970;DHT22;4030;52.362;9.206;2023-01-26T14:47:19;4.10;94.80
7970;DHT22;4030;52.362;9.206;2023-01-26T14:52:24;4.10;94.80
7970;DHT22;4030;52.362;9.206;2023-01-26T14:54:53;4.10;94.70
7970;DHT22;4030;52.362;9.206;2023-01-26T14:57:23;3.90;93.30
7970;DHT22;4030;52.362;9.206;2023-01-26T14:59:52;4.10;92.90
7970;DHT22;4030;52.362;9.206;2023-01-26T15:02:23;4.00;94.20
7970;DHT22;4030;52.362;9.206;2023-01-26T15:07:32;4.00;93.80
7970;DHT22;4030;52.362;9.206;2023-01-26T15:13:00;3.80;93.00
7970;DHT22;4030;52.362;9.206;2023-01-26T15:15:34;4.10;94.50
7970;DHT22;4030;52.362;9.206;2023-01-26T15:20:57;4.10;92.90
7970;DHT22;4030;52.362;9.206;2023-01-26T15:23:31;4.20;94.90
7970;DHT22;4030;52.362;9.206;2023-01-26T15:26:11;4.20;94.70
7970;DHT22;4030;52.362;9.206;2023-01-26T15:28:39;4.10;93.90
7970;DHT22;4030;52.362;9.206;2023-01-26T15:31:05;4.50;93.10
7970;DHT22;4030;52.362;9.206;2023-01-26T15:33:43;4.10;92.90
7970;DHT22;4030;52.362;9.206;2023-01-26T15:36:46;3.80;94.60
7970;DHT22;4030;52.362;9.206;2023-01-26T15:39:16;4.20;92.90
7970;DHT22;4030;52.362;9.206;2023-01-26T15:42:30;4.00;94.50
7970;DHT22;4030;52.362;9.206;2023-01-26T15:47:10;4.10;93.80
7970;DHT22;4030;52.362;9.206;2023-01-26T15:49:37;4.20;94.60
7970;DHT22;4030;52.362;9.206;2023-01-26T15:52:10;4.10;94.60
7970;DHT22;4030;52.362;9.206;2023-01-26T15:54:38;4.00;93.60
7970;DHT22;4030;52.362;9.206;2023-01-26T16:06:49;4.00;94.70
7970;DHT22;4030;52.362;9.206;2023-01-26T16:11:50;4.00;94.70
7970;DHT22;4030;52.362;9.206;2023-01-26T16:21:36;3.80;94.50
7970;DHT22;4030;52.362;9.206;2023-01-26T16:24:03;4.10;93.00
7970;DHT22;4030;52.362;9.206;2023-01-26T16:31:29;4.10;93.00
7970;DHT22;4030;52.362;9.206;2023-01-26T16:33:56;4.20;94.90
7970;DHT22;4030;52.362;9.206;2023-01-26T16:36:22;3.70;94.40
7970;DHT22;4030;52.362;9.206;2023-01-26T16:38:48;4.00;94.80
7970;DHT22;4030;52.362;9.206;2023-01-26T16:41:27;4.00;94.80
7970;DHT22;4030;52.362;9.206;2023-01-26T16:43:57;4.30;94.90
7970;DHT22;4030;52.362;9.206;2023-01-26T16:46:25;4.20;94.10
7970;DHT22;4030;52.362;9.206;2023-01-26T16:48:51;4.00;93.40
7970;DHT22;4030;52.362;9.206;2023-01-26T16:51:36;3.90;93.60
7970;DHT22;4030;52.362;9.206;2023-01-26T16:54:06;3.90;94.80
7970;DHT22;4030;52.362;9.206;2023-01-26T16:58:59;3.80;94.80
7970;DHT22;4030;52.362;9.206;2023-01-26T17:01:27;4.00;94.90
7970;DHT22;4030;52.362;9.206;2023-01-26T17:03:56;4.10;94.90
7970;DHT22;4030;52.362;9.206;2023-01-26T17:06:22;3.90;94.90
7970;DHT22;4030;52.362;9.206;2023-01-26T17:08:49;4.00;93.00
7970;DHT22;4030;52.362;9.206;2023-01-26T17:11:25;4.00;94.90
7970;DHT22;4030;52.362;9.206;2023-01-26T17:16:22;3.90;93.00
7970;DHT22;4030;52.362;9.206;2023-01-26T17:18:51;4.00;93.10
7970;DHT22;4030;52.362;9.206;2023-01-26T17:21:18;3.90;94.90
7970;DHT22;4030;52.362;9.206;2023-01-26T17:23:48;3.90;93.30
7970;DHT22;4030;52.362;9.206;2023-01-26T17:26:16;4.00;94.00
7970;DHT22;4030;52.362;9.206;2023-01-26T17:28:46;4.10;94.90
7970;DHT22;4030;52.362;9.206;2023-01-26T17:31:15;3.70;94.70
7970;DHT22;4030;52.362;9.206;2023-01-26T17:33:43;4.20;95.00
7970;DHT22;4030;52.362;9.206;2023-01-26T17:36:10;3.90;94.80
7970;DHT22;4030;52.362;9.206;2023-01-26T17:38:36;4.10;94.90
7970;DHT22;4030;52.362;9.206;2023-01-26T17:41:02;4.30;95.10
7970;DHT22;4030;52.362;9.206;2023-01-26T17:46:02;4.10;95.00
7970;DHT22;4030;52.362;9.206;2023-01-26T17:48:28;4.20;95.00
7970;DHT22;4030;52.362;9.206;2023-01-26T17:50:54;3.80;94.80
7970;DHT22;4030;52.362;9.206;2023-01-26T17:53:20;3.70;94.80
7970;DHT22;4030;52.362;9.206;2023-01-26T17:55:49;4.00;95.00
7970;DHT22;4030;52.362;9.206;2023-01-26T17:58:15;4.00;94.80
7970;DHT22;4030;52.362;9.206;2023-01-26T18:00:42;4.20;93.40
7970;DHT22;4030;52.362;9.206;2023-01-26T18:03:09;4.10;94.80
7970;DHT22;4030;52.362;9.206;2023-01-26T18:05:35;4.20;95.00
7970;DHT22;4030;52.362;9.206;2023-01-26T18:08:00;4.40;95.10
7970;DHT22;4030;52.362;9.206;2023-01-26T18:10:26;3.90;94.90
7970;DHT22;4030;52.362;9.206;2023-01-26T18:12:57;4.10;95.00
7970;DHT22;4030;52.362;9.206;2023-01-26T18:17:50;4.10;93.20
7970;DHT22;4030;52.362;9.206;2023-01-26T18:25:08;4.10;93.20
7970;DHT22;4030;52.362;9.206;2023-01-26T18:27:34;3.80;93.20
7970;DHT22;4030;52.362;9.206;2023-01-26T18:49:29;4.30;94.50
7970;DHT22;4030;52.362;9.206;2023-01-26T19:06:32;4.30;93.30
7970;DHT22;4030;52.362;9.206;2023-01-26T19:09:00;3.90;94.90
7970;DHT22;4030;52.362;9.206;2023-01-26T19:11:31;4.10;95.00
7970;DHT22;4030;52.362;9.206;2023-01-26T19:13:59;4.00;94.90
7970;DHT22;4030;52.362;9.206;2023-01-26T19:16:26;4.00;93.50
7970;DHT22;4030;52.362;9.206;2023-01-26T19:23:49;4.30;95.10
7970;DHT22;4030;52.362;9.206;2023-01-26T19:26:18;4.50;93.70
7970;DHT22;4030;52.362;9.206;2023-01-26T19:28:45;4.00;94.90
7970;DHT22;4030;52.362;9.206;2023-01-26T19:31:12;4.20;93.20
7970;DHT22;4030;52.362;9.206;2023-01-26T19:33:38;4.20;94.40
7970;DHT22;4030;52.362;9.206;2023-01-26T19:36:05;4.20;95.00
7970;DHT22;4030;52.362;9.206;2023-01-26T19:41:00;4.30;95.10
7970;DHT22;4030;52.362;9.206;2023-01-26T19:45:54;4.00;94.00
7970;DHT22;4030;52.362;9.206;2023-01-26T19:48:21;4.30;93.60
7970;DHT22;4030;52.362;9.206;2023-01-26T19:50:59;4.40;95.20
7970;DHT22;4030;52.362;9.206;2023-01-26T19:53:31;4.40;95.20
7970;DHT22;4030;52.362;9.206;2023-01-26T20:00:59;4.20;93.30
7970;DHT22;4030;52.362;9.206;2023-01-26T20:03:25;4.30;94.90
7970;DHT22;4030;52.362;9.206;2023-01-26T20:18:01;4.10;93.40
7970;DHT22;4030;52.362;9.206;2023-01-26T20:20:28;4.20;94.60
7970;DHT22;4030;52.362;9.206;2023-01-26T20:25:21;4.30;95.20
7970;DHT22;4030;52.362;9.206;2023-01-26T20:27:46;4.10;95.20
7970;DHT22;4030;52.362;9.206;2023-01-26T20:30:12;3.90;95.10
7970;DHT22;4030;52.362;9.206;2023-01-26T20:32:38;4.40;95.30
7970;DHT22;4030;52.362;9.206;2023-01-26T20:35:06;4.50;95.30
7970;DHT22;4030;52.362;9.206;2023-01-26T20:37:34;4.00;95.10
7970;DHT22;4030;52.362;9.206;2023-01-26T20:44:54;4.40;94.30
7970;DHT22;4030;52.362;9.206;2023-01-26T20:47:22;4.30;95.20
7970;DHT22;4030;52.362;9.206;2023-01-26T20:49:48;4.30;93.40
7970;DHT22;4030;52.362;9.206;2023-01-26T21:06:51;4.30;95.30
7970;DHT22;4030;52.362;9.206;2023-01-26T21:09:18;4.20;95.30
7970;DHT22;4030;52.362;9.206;2023-01-26T21:11:45;4.30;95.30
7970;DHT22;4030;52.362;9.206;2023-01-26T21:14:11;4.50;93.80
7970;DHT22;4030;52.362;9.206;2023-01-26T21:16:38;4.50;95.40
7970;DHT22;4030;52.362;9.206;2023-01-26T21:19:04;4.20;95.30
7970;DHT22;4030;52.362;9.206;2023-01-26T21:21:30;4.20;94.20
7970;DHT22;4030;52.362;9.206;2023-01-26T21:23:56;4.10;95.30
7970;DHT22;4030;52.362;9.206;2023-01-26T21:26:24;4.30;95.40
7970;DHT22;4030;52.362;9.206;2023-01-26T21:28:58;4.30;95.40
7970;DHT22;4030;52.362;9.206;2023-01-26T21:31:26;3.90;95.20
7970;DHT22;4030;52.362;9.206;2023-01-26T21:33:53;4.30;93.50
7970;DHT22;4030;52.362;9.206;2023-01-26T21:36:25;4.00;95.20
7970;DHT22;4030;52.362;9.206;2023-01-26T21:38:53;4.40;93.90
7970;DHT22;4030;52.362;9.206;2023-01-26T21:41:30;4.30;93.50
7970;DHT22;4030;52.362;9.206;2023-01-26T21:44:22;4.70;95.50
7970;DHT22;4030;52.362;9.206;2023-01-26T21:46:59;4.30;93.50
7970;DHT22;4030;52.362;9.206;2023-01-26T21:57:07;4.20;95.30
7970;DHT22;4030;52.362;9.206;2023-01-26T21:59:53;4.50;95.40
7970;DHT22;4030;52.362;9.206;2023-01-26T22:02:19;4.20;95.30
7970;DHT22;4030;52.362;9.206;2023-01-26T22:04:45;4.50;95.40
7970;DHT22;4030;52.362;9.206;2023-01-26T22:09:36;4.00;94.20
7970;DHT22;4030;52.362;9.206;2023-01-26T22:12:03;4.00;95.30
7970;DHT22;4030;52.362;9.206;2023-01-26T22:14:29;4.00;95.20
7970;DHT22;4030;52.362;9.206;2023-01-26T22:16:55;4.00;95.10
7970;DHT22;4030;52.362;9.206;2023-01-26T22:26:39;4.20;95.10
7970;DHT22;4030;52.362;9.206;2023-01-26T22:29:06;4.50;95.40
7970;DHT22;4030;52.362;9.206;2023-01-26T22:31:32;4.40;95.50
7970;DHT22;4030;52.362;9.206;2023-01-26T22:33:59;4.40;93.60
7970;DHT22;4030;52.362;9.206;2023-01-26T22:36:26;4.40;93.60
7970;DHT22;4030;52.362;9.206;2023-01-26T22:38:52;4.40;95.40
7970;DHT22;4030;52.362;9.206;2023-01-26T22:41:23;4.10;95.20
7970;DHT22;4030;52.362;9.206;2023-01-26T22:43:52;4.30;95.40
7970;DHT22;4030;52.362;9.206;2023-01-26T22:46:20;4.70;95.60
7970;DHT22;4030;52.362;9.206;2023-01-26T22:48:47;4.50;95.50
7970;DHT22;4030;52.362;9.206;2023-01-26T22:51:15;4.60;95.50
7970;DHT22;4030;52.362;9.206;2023-01-26T22:53:43;4.20;95.40
7970;DHT22;4030;52.362;9.206;2023-01-26T22:56:09;4.70;95.50
7970;DHT22;4030;52.362;9.206;2023-01-26T22:58:36;4.40;93.60
7970;DHT22;4030;52.362;9.206;2023-01-26T23:01:13;4.10;95.30
7970;DHT22;4030;52.362;9.206;2023-01-26T23:03:40;4.40;93.60
7970;DHT22;4030;52.362;9.206;2023-01-26T23:06:10;4.40;95.40
7970;DHT22;4030;52.362;9.206;2023-01-26T23:11:40;4.60;94.00
7970;DHT22;4030;52.362;9.206;2023-01-26T23:18:53;4.40;95.50
7970;DHT22;4030;52.362;9.206;2023-01-26T23:21:20;4.60;95.60
7970;DHT22;4030;52.362;9.206;2023-01-26T23:23:46;4.50;95.50
7970;DHT22;4030;52.362;9.206;2023-01-26T23:26:11;4.40;95.50
7970;DHT22;4030;52.362;9.206;2023-01-26T23:28:39;4.50;95.50
7970;DHT22;4030;52.362;9.206;2023-01-26T23:31:06;4.30;95.50
7970;DHT22;4030;52.362;9.206;2023-01-26T23:33:33;4.50;93.80
7970;DHT22;4030;52.362;9.206;2023-01-26T23:36:00;4.70;95.60
7970;DHT22;4030;52.362;9.206;2023-01-26T23:38:27;4.70;95.60
7970;DHT22;4030;52.362;9.206;2023-01-26T23:40:54;4.80;95.70
7970;DHT22;4030;52.362;9.206;2023-01-26T23:43:19;4.60;95.60
7970;DHT22;4030;52.362;9.206;2023-01-26T23:45:46;4.60;95.50
7970;DHT22;4030;52.362;9.206;2023-01-26T23:48:13;4.60;94.70
7970;DHT22;4030;52.362;9.206;2023-01-26T23:50:40;4.30;94.90
7970;DHT22;4030;52.362;9.206;2023-01-26T23:53:06;4.40;95.50
7970;DHT22;4030;52.362;9.206;2023-01-26T23:55:32;4.30;95.50
7970;DHT22;4030;52.362;9.206;2023-01-26T23:57:57;4.20;95.10
